sensor_id;sensor_type;location;lat;lon;timestamp;temperature;humidity
21271;DHT22;10795;50.796;3.860;2023-02-01T00:01:42;7.70;99.90
21271;DHT22;10795;50.796;3.860;2023-02-01T00:04:08;7.90;99.90
21271;DHT22;10795;50.796;3.860;2023-02-01T00:06:34;7.80;99.90
21271;DHT22;10795;50.796;3.860;2023-02-01T00:09:01;7.60;99.90
21271;DHT22;10795;50.796;3.860;2023-02-01T00:11:27;7.70;99.90
21271;DHT22;10795;50.796;3.860;2023-02-01T00:13:53;7.80;99.90
21271;DHT22;10795;50.796;3.860;2023-02-01T00:16:23;7.90;99.90
21271;DHT22;10795;50.796;3.860;2023-02-01T00:18:52;7.90;99.90
21271;DHT22;10795;50.796;3.860;2023-02-01T00:21:22;7.80;99.90
21271;DHT22;10795;50.796;3.860;2023-02-01T00:23:48;7.80;99.90
21271;DHT22;10795;50.796;3.860;2023-02-01T00:26:34;7.90;99.90
21271;DHT22;10795;50.796;3.860;2023-02-01T00:29:03;8.00;99.90
21271;DHT22;10795;50.796;3.860;2023-02-01T00:31:29;7.70;99.90
21271;DHT22;10795;50.796;3.860;2023-02-01T00:33:55;7.60;99.90
21271;DHT22;10795;50.796;3.860;2023-02-01T00:36:21;7.60;99.90
21271;DHT22;10795;50.796;3.860;2023-02-01T00:38:47;7.80;99.90
21271;DHT22;10795;50.796;3.860;2023-02-01T00:41:18;7.90;99.90
21271;DHT22;10795;50.796;3.860;2023-02-01T00:43:44;7.80;99.90
21271;DHT22;10795;50.796;3.860;2023-02-01T00:46:11;7.70;99.90
21271;DHT22;10795;50.796;3.860;2023-02-01T00:48:37;7.60;99.90
21271;DHT22;10795;50.796;3.860;2023-02-01T00:51:09;7.50;99.90
21271;DHT22;10795;50.796;3.860;2023-02-01T00:53:36;7.60;99.90
21271;DHT22;10795;50.796;3.860;2023-02-01T00:56:03;7.70;99.90
21271;DHT22;10795;50.796;3.860;2023-02-01T00:58:29;7.70;99.90
21271;DHT22;10795;50.796;3.860;2023-02-01T01:01:22;7.70;99.90
21271;DHT22;10795;50.796;3.860;2023-02-01T01:03:54;7.60;99.90
21271;DHT22;10795;50.796;3.860;2023-02-01T01:06:24;7.50;99.90
21271;DHT22;10795;50.796;3.860;2023-02-01T01:08:52;7.50;99.90
21271;DHT22;10795;50.796;3.860;2023-02-01T01:11:22;7.60;99.90
21271;DHT22;10795;50.796;3.860;2023-02-01T01:13:49;7.50;99.90
21271;DHT22;10795;50.796;3.860;2023-02-01T01:16:15;7.60;99.90
21271;DHT22;10795;50.796;3.860;2023-02-01T01:18:42;7.60;99.90
21271;DHT22;10795;50.796;3.860;2023-02-01T01:21:09;7.40;99.90
21271;DHT22;10795;50.796;3.860;2023-02-01T01:23:35;7.40;99.90
21271;DHT22;10795;50.796;3.860;2023-02-01T01:26:09;7.30;99.90
21271;DHT22;10795;50.796;3.860;2023-02-01T01:28:35;7.30;99.90
21271;DHT22;10795;50.796;3.860;2023-02-01T01:31:02;7.30;99.90
21271;DHT22;10795;50.796;3.860;2023-02-01T01:33:27;7.30;99.90
21271;DHT22;10795;50.796;3.860;2023-02-01T01:35:53;7.50;99.90
21271;DHT22;10795;50.796;3.860;2023-02-01T01:38:19;7.50;99.90
21271;DHT22;10795;50.796;3.860;2023-02-01T01:40:46;7.50;99.90
21271;DHT22;10795;50.796;3.860;2023-02-01T01:43:14;7.50;99.90
21271;DHT22;10795;50.796;3.860;2023-02-01T01:45:41;7.40;99.90
21271;DHT22;10795;50.796;3.860;2023-02-01T01:48:25;7.50;99.90
21271;DHT22;10795;50.796;3.860;2023-02-01T01:50:57;7.60;99.90
21271;DHT22;10795;50.796;3.860;2023-02-01T01:53:35;7.40;99.90
21271;DHT22;10795;50.796;3.860;2023-02-01T01:56:03;7.50;99.90
21271;DHT22;10795;50.796;3.860;2023-02-01T01:58:31;7.60;99.90
21271;DHT22;10795;50.796;3.860;2023-02-01T02:00:59;7.50;99.90
21271;DHT22;10795;50.796;3.860;2023-02-01T02:03:35;7.40;99.90
21271;DHT22;10795;50.796;3.860;2023-02-01T02:06:04;7.50;99.90
21271;DHT22;10795;50.796;3.860;2023-02-01T02:08:33;7.60;99.90
21271;DHT22;10795;50.796;3.860;2023-02-01T02:10:59;7.60;99.90
21271;DHT22;10795;50.796;3.860;2023-02-01T02:13:31;7.50;99.90
21271;DHT22;10795;50.796;3.860;2023-02-01T02:16:50;7.60;99.90
21271;DHT22;10795;50.796;3.860;2023-02-01T02:32:58;7.30;99.90
21271;DHT22;10795;50.796;3.860;2023-02-01T02:35:38;7.40;99.90
21271;DHT22;10795;50.796;3.860;2023-02-01T02:41:07;7.50;99.90
21271;DHT22;10795;50.796;3.860;2023-02-01T02:43:45;7.50;99.90
21271;DHT22;10795;50.796;3.860;2023-02-01T02:46:42;7.40;99.90
21271;DHT22;10795;50.796;3.860;2023-02-01T02:49:52;7.40;99.90
21271;DHT22;10795;50.796;3.860;2023-02-01T02:52:59;7.20;99.90
21271;DHT22;10795;50.796;3.860;2023-02-01T02:55:46;7.00;99.90
21271;DHT22;10795;50.796;3.860;2023-02-01T02:58:13;7.10;99.90
21271;DHT22;10795;50.796;3.860;2023-02-01T03:00:59;7.00;99.90
21271;DHT22;10795;50.796;3.860;2023-02-01T03:03:46;6.80;99.90
21271;DHT22;10795;50.796;3.860;2023-02-01T03:06:36;6.90;99.90
21271;DHT22;10795;50.796;3.860;2023-02-01T03:09:12;6.90;99.90
21271;DHT22;10795;50.796;3.860;2023-02-01T03:11:40;7.10;99.90
21271;DHT22;10795;50.796;3.860;2023-02-01T03:14:29;7.20;99.90
21271;DHT22;10795;50.796;3.860;2023-02-01T03:17:03;7.10;99.90
21271;DHT22;10795;50.796;3.860;2023-02-01T03:19:39;6.60;99.90
21271;DHT22;10795;50.796;3.860;2023-02-01T03:22:15;6.50;99.90
21271;DHT22;10795;50.796;3.860;2023-02-01T03:24:50;6.40;99.90
21271;DHT22;10795;50.796;3.860;2023-02-01T03:27:32;6.50;99.90
21271;DHT22;10795;50.796;3.860;2023-02-01T03:30:25;6.60;99.90
21271;DHT22;10795;50.796;3.860;2023-02-01T03:32:55;6.60;99.90
21271;DHT22;10795;50.796;3.860;2023-02-01T03:38:15;6.60;99.90
21271;DHT22;10795;50.796;3.860;2023-02-01T03:40:47;6.70;99.90
21271;DHT22;10795;50.796;3.860;2023-02-01T03:43:17;6.90;99.90
21271;DHT22;10795;50.796;3.860;2023-02-01T03:45:48;6.80;99.90
21271;DHT22;10795;50.796;3.860;2023-02-01T03:48:16;6.70;99.90
21271;DHT22;10795;50.796;3.860;2023-02-01T03:50:50;6.80;99.90
21271;DHT22;10795;50.796;3.860;2023-02-01T03:53:21;6.70;99.90
21271;DHT22;10795;50.796;3.860;2023-02-01T03:55:49;6.60;99.90
21271;DHT22;10795;50.796;3.860;2023-02-01T03:58:20;6.70;99.90
21271;DHT22;10795;50.796;3.860;2023-02-01T04:00:55;6.80;99.90
21271;DHT22;10795;50.796;3.860;2023-02-01T04:03:22;6.70;99.90
21271;DHT22;10795;50.796;3.860;2023-02-01T04:05:49;6.60;99.90
21271;DHT22;10795;50.796;3.860;2023-02-01T04:08:15;6.30;99.90
21271;DHT22;10795;50.796;3.860;2023-02-01T04:10:41;6.40;99.90
21271;DHT22;10795;50.796;3.860;2023-02-01T04:13:08;6.50;99.90
21271;DHT22;10795;50.796;3.860;2023-02-01T04:15:34;6.30;99.90
21271;DHT22;10795;50.796;3.860;2023-02-01T04:18:00;6.30;99.90
21271;DHT22;10795;50.796;3.860;2023-02-01T04:20:27;6.40;99.90
21271;DHT22;10795;50.796;3.860;2023-02-01T04:22:52;6.50;99.90
21271;DHT22;10795;50.796;3.860;2023-02-01T04:25:18;6.40;99.90
21271;DHT22;10795;50.796;3.860;2023-02-01T04:27:46;6.20;99.90
21271;DHT22;10795;50.796;3.860;2023-02-01T04:30:13;6.30;99.90
21271;DHT22;10795;50.796;3.860;2023-02-01T04:32:39;6.30;99.90
21271;DHT22;10795;50.796;3.860;2023-02-01T04:35:06;6.00;99.90
21271;DHT22;10795;50.796;3.860;2023-02-01T04:37:32;6.00;99.90
21271;DHT22;10795;50.796;3.860;2023-02-01T04:39:58;6.00;99.90
21271;DHT22;10795;50.796;3.860;2023-02-01T04:42:24;6.20;99.90
21271;DHT22;10795;50.796;3.860;2023-02-01T04:44:50;6.10;99.90
21271;DHT22;10795;50.796;3.860;2023-02-01T04:47:15;6.10;99.90
21271;DHT22;10795;50.796;3.860;2023-02-01T04:49:41;6.20;99.90
21271;DHT22;10795;50.796;3.860;2023-02-01T04:52:07;6.40;99.90
21271;DHT22;10795;50.796;3.860;2023-02-01T04:54:33;6.20;99.90
21271;DHT22;10795;50.796;3.860;2023-02-01T04:56:59;6.10;99.90
21271;DHT22;10795;50.796;3.860;2023-02-01T04:59:26;6.10;99.90
21271;DHT22;10795;50.796;3.860;2023-02-01T05:01:53;6.20;99.90
21271;DHT22;10795;50.796;3.860;2023-02-01T05:04:19;6.10;99.90
21271;DHT22;10795;50.796;3.860;2023-02-01T05:06:45;6.10;99.90
21271;DHT22;10795;50.796;3.860;2023-02-01T05:09:11;6.10;99.90
21271;DHT22;10795;50.796;3.860;2023-02-01T05:11:37;5.90;99.90
21271;DHT22;10795;50.796;3.860;2023-02-01T05:14:22;5.90;99.90
21271;DHT22;10795;50.796;3.860;2023-02-01T05:16:47;5.80;99.90
21271;DHT22;10795;50.796;3.860;2023-02-01T05:19:13;5.80;99.90
21271;DHT22;10795;50.796;3.860;2023-02-01T05:21:39;5.90;99.90
21271;DHT22;10795;50.796;3.860;2023-02-01T05:24:05;5.80;99.90
21271;DHT22;10795;50.796;3.860;2023-02-01T05:26:39;5.70;99.90
21271;DHT22;10795;50.796;3.860;2023-02-01T05:29:07;5.90;99.90
21271;DHT22;10795;50.796;3.860;2023-02-01T05:31:33;5.70;99.90
21271;DHT22;10795;50.796;3.860;2023-02-01T05:33:58;5.60;99.90
21271;DHT22;10795;50.796;3.860;2023-02-01T05:36:24;5.70;99.90
21271;DHT22;10795;50.796;3.860;2023-02-01T05:38:50;5.60;99.90
21271;DHT22;10795;50.796;3.860;2023-02-01T05:41:16;5.60;99.90
21271;DHT22;10795;50.796;3.860;2023-02-01T05:43:42;5.70;99.90
21271;DHT22;10795;50.796;3.860;2023-02-01T05:46:07;5.90;99.90
21271;DHT22;10795;50.796;3.860;2023-02-01T05:48:36;5.70;99.90
21271;DHT22;10795;50.796;3.860;2023-02-01T05:51:02;5.70;99.90
21271;DHT22;10795;50.796;3.860;2023-02-01T05:53:27;5.70;99.90
21271;DHT22;10795;50.796;3.860;2023-02-01T05:55:53;5.70;99.90
21271;DHT22;10795;50.796;3.860;2023-02-01T05:58:19;5.80;99.90
21271;DHT22;10795;50.796;3.860;2023-02-01T06:00:45;5.70;99.90
21271;DHT22;10795;50.796;3.860;2023-02-01T06:03:10;5.70;99.90
21271;DHT22;10795;50.796;3.860;2023-02-01T06:05:36;5.60;99.90
21271;DHT22;10795;50.796;3.860;2023-02-01T06:08:02;5.70;99.90
21271;DHT22;10795;50.796;3.860;2023-02-01T06:10:28;5.60;99.90
21271;DHT22;10795;50.796;3.860;2023-02-01T06:12:54;5.60;99.90
21271;DHT22;10795;50.796;3.860;2023-02-01T06:15:20;5.60;99.90
21271;DHT22;10795;50.796;3.860;2023-02-01T06:17:46;5.70;99.90
21271;DHT22;10795;50.796;3.860;2023-02-01T06:20:13;5.60;99.90
21271;DHT22;10795;50.796;3.860;2023-02-01T06:22:39;5.70;99.90
21271;DHT22;10795;50.796;3.860;2023-02-01T06:25:06;5.70;99.90
21271;DHT22;10795;50.796;3.860;2023-02-01T06:27:33;5.90;99.90
21271;DHT22;10795;50.796;3.860;2023-02-01T06:29:58;5.80;99.90
21271;DHT22;10795;50.796;3.860;2023-02-01T06:32:24;5.80;99.90
21271;DHT22;10795;50.796;3.860;2023-02-01T06:34:51;5.50;99.90
21271;DHT22;10795;50.796;3.860;2023-02-01T06:37:22;5.50;99.90
21271;DHT22;10795;50.796;3.860;2023-02-01T06:39:48;5.50;99.90
21271;DHT22;10795;50.796;3.860;2023-02-01T06:42:14;5.60;99.90
21271;DHT22;10795;50.796;3.860;2023-02-01T06:44:40;5.70;99.90
21271;DHT22;10795;50.796;3.860;2023-02-01T06:47:06;5.60;99.90
21271;DHT22;10795;50.796;3.860;2023-02-01T06:49:32;5.70;99.90
21271;DHT22;10795;50.796;3.860;2023-02-01T06:51:58;5.70;99.90
21271;DHT22;10795;50.796;3.860;2023-02-01T06:54:26;5.50;99.90
21271;DHT22;10795;50.796;3.860;2023-02-01T06:56:52;5.40;99.90
21271;DHT22;10795;50.796;3.860;2023-02-01T06:59:18;5.40;99.90
21271;DHT22;10795;50.796;3.860;2023-02-01T07:01:44;5.20;99.90
21271;DHT22;10795;50.796;3.860;2023-02-01T07:04:12;5.20;99.90
21271;DHT22;10795;50.796;3.860;2023-02-01T07:06:39;5.20;99.90
21271;DHT22;10795;50.796;3.860;2023-02-01T07:09:05;5.30;99.90
21271;DHT22;10795;50.796;3.860;2023-02-01T07:11:31;5.30;99.90
21271;DHT22;10795;50.796;3.860;2023-02-01T07:13:57;5.20;99.90
21271;DHT22;10795;50.796;3.860;2023-02-01T07:16:24;5.30;99.90
21271;DHT22;10795;50.796;3.860;2023-02-01T07:18:51;5.20;99.90
21271;DHT22;10795;50.796;3.860;2023-02-01T07:21:17;5.30;99.90
21271;DHT22;10795;50.796;3.860;2023-02-01T07:23:43;5.40;99.90
21271;DHT22;10795;50.796;3.860;2023-02-01T07:26:11;5.60;99.90
21271;DHT22;10795;50.796;3.860;2023-02-01T07:28:41;5.50;99.90
21271;DHT22;10795;50.796;3.860;2023-02-01T07:31:08;5.60;99.90
21271;DHT22;10795;50.796;3.860;2023-02-01T07:33:35;5.50;99.90
21271;DHT22;10795;50.796;3.860;2023-02-01T07:36:03;5.40;99.90
21271;DHT22;10795;50.796;3.860;2023-02-01T07:38:29;5.40;99.90
21271;DHT22;10795;50.796;3.860;2023-02-01T07:41:02;5.50;99.90
21271;DHT22;10795;50.796;3.860;2023-02-01T07:43:29;5.60;99.90
21271;DHT22;10795;50.796;3.860;2023-02-01T07:45:54;5.60;99.90
21271;DHT22;10795;50.796;3.860;2023-02-01T07:48:21;5.60;99.90
21271;DHT22;10795;50.796;3.860;2023-02-01T07:50:48;5.50;99.90
21271;DHT22;10795;50.796;3.860;2023-02-01T07:53:14;5.70;99.90
21271;DHT22;10795;50.796;3.860;2023-02-01T07:55:40;5.80;99.90
21271;DHT22;10795;50.796;3.860;2023-02-01T07:58:06;6.00;99.90
21271;DHT22;10795;50.796;3.860;2023-02-01T08:00:32;6.10;99.90
21271;DHT22;10795;50.796;3.860;2023-02-01T08:03:16;6.50;99.90
21271;DHT22;10795;50.796;3.860;2023-02-01T08:05:42;6.40;99.90
21271;DHT22;10795;50.796;3.860;2023-02-01T08:08:08;6.40;99.90
21271;DHT22;10795;50.796;3.860;2023-02-01T08:10:34;6.40;99.90
21271;DHT22;10795;50.796;3.860;2023-02-01T08:13:01;6.50;99.90
21271;DHT22;10795;50.796;3.860;2023-02-01T08:15:28;6.70;99.90
21271;DHT22;10795;50.796;3.860;2023-02-01T08:17:54;6.70;99.90
21271;DHT22;10795;50.796;3.860;2023-02-01T08:20:21;6.80;99.90
21271;DHT22;10795;50.796;3.860;2023-02-01T08:22:53;6.70;99.90
21271;DHT22;10795;50.796;3.860;2023-02-01T08:25:19;6.60;99.90
21271;DHT22;10795;50.796;3.860;2023-02-01T08:27:45;6.60;99.90
21271;DHT22;10795;50.796;3.860;2023-02-01T08:30:11;6.70;99.90
21271;DHT22;10795;50.796;3.860;2023-02-01T08:32:37;6.70;99.90
21271;DHT22;10795;50.796;3.860;2023-02-01T08:35:04;6.50;99.90
21271;DHT22;10795;50.796;3.860;2023-02-01T08:37:30;6.60;99.90
21271;DHT22;10795;50.796;3.860;2023-02-01T08:39:56;6.60;99.90
21271;DHT22;10795;50.796;3.860;2023-02-01T08:42:22;6.60;99.90
21271;DHT22;10795;50.796;3.860;2023-02-01T08:45:07;6.70;99.90
21271;DHT22;10795;50.796;3.860;2023-02-01T08:47:34;6.80;99.90
21271;DHT22;10795;50.796;3.860;2023-02-01T08:50:00;7.00;99.90
21271;DHT22;10795;50.796;3.860;2023-02-01T08:52:26;7.10;99.90
21271;DHT22;10795;50.796;3.860;2023-02-01T08:54:52;7.10;99.90
21271;DHT22;10795;50.796;3.860;2023-02-01T08:57:18;7.30;99.90
21271;DHT22;10795;50.796;3.860;2023-02-01T08:59:43;7.20;99.90
21271;DHT22;10795;50.796;3.860;2023-02-01T09:02:14;7.10;99.90
21271;DHT22;10795;50.796;3.860;2023-02-01T09:04:41;7.20;99.90
21271;DHT22;10795;50.796;3.860;2023-02-01T09:07:08;7.10;99.90
21271;DHT22;10795;50.796;3.860;2023-02-01T09:09:34;6.90;99.90
21271;DHT22;10795;50.796;3.860;2023-02-01T09:12:00;7.20;99.90
21271;DHT22;10795;50.796;3.860;2023-02-01T09:14:25;7.40;99.90
21271;DHT22;10795;50.796;3.860;2023-02-01T09:16:51;7.40;99.90
21271;DHT22;10795;50.796;3.860;2023-02-01T09:19:17;7.20;99.90
21271;DHT22;10795;50.796;3.860;2023-02-01T09:21:43;7.30;99.90
21271;DHT22;10795;50.796;3.860;2023-02-01T09:24:12;7.40;99.90
21271;DHT22;10795;50.796;3.860;2023-02-01T09:26:38;7.50;99.90
21271;DHT22;10795;50.796;3.860;2023-02-01T09:29:04;7.60;99.90
21271;DHT22;10795;50.796;3.860;2023-02-01T09:31:36;7.60;99.90
21271;DHT22;10795;50.796;3.860;2023-02-01T09:34:02;7.70;99.90
21271;DHT22;10795;50.796;3.860;2023-02-01T09:36:28;7.80;99.90
21271;DHT22;10795;50.796;3.860;2023-02-01T09:38:53;7.90;99.90
21271;DHT22;10795;50.796;3.860;2023-02-01T09:47:23;8.30;99.90
21271;DHT22;10795;50.796;3.860;2023-02-01T09:50:02;8.70;99.90
21271;DHT22;10795;50.796;3.860;2023-02-01T09:52:36;8.60;99.90
21271;DHT22;10795;50.796;3.860;2023-02-01T09:55:20;8.50;99.90
21271;DHT22;10795;50.796;3.860;2023-02-01T09:57:53;8.90;99.90
21271;DHT22;10795;50.796;3.860;2023-02-01T10:00:29;9.10;99.90
21271;DHT22;10795;50.796;3.860;2023-02-01T10:02:56;9.30;99.90
21271;DHT22;10795;50.796;3.860;2023-02-01T10:10:47;9.50;99.90
21271;DHT22;10795;50.796;3.860;2023-02-01T10:15:55;9.60;99.90
21271;DHT22;10795;50.796;3.860;2023-02-01T10:18:36;9.70;99.90
21271;DHT22;10795;50.796;3.860;2023-02-01T10:21:11;9.40;99.90
21271;DHT22;10795;50.796;3.860;2023-02-01T10:26:22;9.50;99.90
21271;DHT22;10795;50.796;3.860;2023-02-01T10:28:55;9.70;99.90
21271;DHT22;10795;50.796;3.860;2023-02-01T10:31:25;9.80;99.90
21271;DHT22;10795;50.796;3.860;2023-02-01T10:33:56;9.80;99.90
21271;DHT22;10795;50.796;3.860;2023-02-01T10:36:35;9.90;99.90
21271;DHT22;10795;50.796;3.860;2023-02-01T10:39:03;10.10;99.90
21271;DHT22;10795;50.796;3.860;2023-02-01T10:41:35;10.10;99.90
21271;DHT22;10795;50.796;3.860;2023-02-01T10:44:06;10.00;99.90
21271;DHT22;10795;50.796;3.860;2023-02-01T10:46:34;9.80;99.90
21271;DHT22;10795;50.796;3.860;2023-02-01T10:49:03;9.80;99.90
21271;DHT22;10795;50.796;3.860;2023-02-01T10:51:38;9.90;99.90
21271;DHT22;10795;50.796;3.860;2023-02-01T10:54:19;9.90;99.90
21271;DHT22;10795;50.796;3.860;2023-02-01T10:56:46;9.80;99.90
21271;DHT22;10795;50.796;3.860;2023-02-01T10:59:20;10.50;99.90
21271;DHT22;10795;50.796;3.860;2023-02-01T11:01:48;10.00;99.90
21271;DHT22;10795;50.796;3.860;2023-02-01T11:06:48;9.70;99.90
21271;DHT22;10795;50.796;3.860;2023-02-01T11:09:22;9.80;99.90
21271;DHT22;10795;50.796;3.860;2023-02-01T11:14:16;10.00;99.90
21271;DHT22;10795;50.796;3.860;2023-02-01T11:16:52;10.30;99.90
21271;DHT22;10795;50.796;3.860;2023-02-01T11:19:18;10.20;99.90
21271;DHT22;10795;50.796;3.860;2023-02-01T11:21:48;10.40;99.90
21271;DHT22;10795;50.796;3.860;2023-02-01T11:24:29;11.00;99.90
21271;DHT22;10795;50.796;3.860;2023-02-01T11:26:56;10.90;99.90
21271;DHT22;10795;50.796;3.860;2023-02-01T11:29:23;11.10;99.90
21271;DHT22;10795;50.796;3.860;2023-02-01T11:31:59;11.10;99.90
21271;DHT22;10795;50.796;3.860;2023-02-01T11:34:31;11.00;99.90
21271;DHT22;10795;50.796;3.860;2023-02-01T11:37:00;11.30;99.90
21271;DHT22;10795;50.796;3.860;2023-02-01T11:39:33;11.10;99.90
21271;DHT22;10795;50.796;3.860;2023-02-01T11:42:14;11.10;99.90
21271;DHT22;10795;50.796;3.860;2023-02-01T11:44:42;11.10;99.90
21271;DHT22;10795;50.796;3.860;2023-02-01T11:47:29;11.10;99.90
21271;DHT22;10795;50.796;3.860;2023-02-01T11:50:03;11.10;99.90
21271;DHT22;10795;50.796;3.860;2023-02-01T12:06:12;11.70;99.90
21271;DHT22;10795;50.796;3.860;2023-02-01T12:19:48;11.90;99.90
21271;DHT22;10795;50.796;3.860;2023-02-01T12:25:17;11.90;99.90
21271;DHT22;10795;50.796;3.860;2023-02-01T12:27:54;12.30;99.90
21271;DHT22;10795;50.796;3.860;2023-02-01T12:31:04;12.70;99.90
21271;DHT22;10795;50.796;3.860;2023-02-01T12:39:40;12.50;99.90
21271;DHT22;10795;50.796;3.860;2023-02-01T12:42:36;12.20;99.90
21271;DHT22;10795;50.796;3.860;2023-02-01T12:45:18;12.40;99.90
21271;DHT22;10795;50.796;3.860;2023-02-01T12:50:56;11.70;99.90
21271;DHT22;10795;50.796;3.860;2023-02-01T12:56:39;12.70;99.90
21271;DHT22;10795;50.796;3.860;2023-02-01T12:59:03;12.40;99.90
21271;DHT22;10795;50.796;3.860;2023-02-01T13:01:39;12.60;99.90
21271;DHT22;10795;50.796;3.860;2023-02-01T13:04:14;12.40;99.90
21271;DHT22;10795;50.796;3.860;2023-02-01T13:06:47;12.50;99.90
21271;DHT22;10795;50.796;3.860;2023-02-01T13:09:26;12.30;99.90
21271;DHT22;10795;50.796;3.860;2023-02-01T13:11:57;12.00;99.90
21271;DHT22;10795;50.796;3.860;2023-02-01T13:14:31;12.10;99.90
21271;DHT22;10795;50.796;3.860;2023-02-01T13:17:00;12.40;99.90
21271;DHT22;10795;50.796;3.860;2023-02-01T13:22:43;12.80;99.90
21271;DHT22;10795;50.796;3.860;2023-02-01T13:27:35;12.50;99.90
21271;DHT22;10795;50.796;3.860;2023-02-01T13:31:10;12.70;99.90
21271;DHT22;10795;50.796;3.860;2023-02-01T13:44:43;12.30;99.90
21271;DHT22;10795;50.796;3.860;2023-02-01T13:47:23;11.90;99.90
21271;DHT22;10795;50.796;3.860;2023-02-01T13:49:50;11.90;99.90
21271;DHT22;10795;50.796;3.860;2023-02-01T13:52:29;11.80;99.90
21271;DHT22;10795;50.796;3.860;2023-02-01T13:57:42;12.40;99.90
21271;DHT22;10795;50.796;3.860;2023-02-01T14:00:29;12.30;99.90
21271;DHT22;10795;50.796;3.860;2023-02-01T14:03:11;11.90;99.90
21271;DHT22;10795;50.796;3.860;2023-02-01T14:13:27;12.10;99.90
21271;DHT22;10795;50.796;3.860;2023-02-01T14:23:43;12.30;99.90
21271;DHT22;10795;50.796;3.860;2023-02-01T14:26:17;11.60;99.90
21271;DHT22;10795;50.796;3.860;2023-02-01T14:28:53;11.50;99.90
21271;DHT22;10795;50.796;3.860;2023-02-01T14:34:21;11.60;99.90
21271;DHT22;10795;50.796;3.860;2023-02-01T14:36:51;11.80;99.90
21271;DHT22;10795;50.796;3.860;2023-02-01T14:44:56;12.20;99.90
21271;DHT22;10795;50.796;3.860;2023-02-01T14:47:41;12.10;99.90
21271;DHT22;10795;50.796;3.860;2023-02-01T14:59:43;11.60;99.90
21271;DHT22;10795;50.796;3.860;2023-02-01T15:01:39;11.40;99.90
21271;DHT22;10795;50.796;3.860;2023-02-01T15:04:12;11.60;99.90
21271;DHT22;10795;50.796;3.860;2023-02-01T15:06:44;11.40;99.90
21271;DHT22;10795;50.796;3.860;2023-02-01T15:14:23;11.20;99.90
21271;DHT22;10795;50.796;3.860;2023-02-01T15:16:48;11.30;99.90
21271;DHT22;10795;50.796;3.860;2023-02-01T15:19:23;11.10;99.90
21271;DHT22;10795;50.796;3.860;2023-02-01T15:21:51;11.40;99.90
21271;DHT22;10795;50.796;3.860;2023-02-01T15:24:31;11.60;99.90
21271;DHT22;10795;50.796;3.860;2023-02-01T15:27:04;10.90;99.90
21271;DHT22;10795;50.796;3.860;2023-02-01T15:29:30;10.80;99.90
21271;DHT22;10795;50.796;3.860;2023-02-01T15:31:58;10.60;99.90
21271;DHT22;10795;50.796;3.860;2023-02-01T15:34:47;10.80;99.90
21271;DHT22;10795;50.796;3.860;2023-02-01T15:37:15;10.50;99.90
21271;DHT22;10795;50.796;3.860;2023-02-01T15:40:17;10.30;99.90
21271;DHT22;10795;50.796;3.860;2023-02-01T15:42:58;10.60;99.90
21271;DHT22;10795;50.796;3.860;2023-02-01T15:45:31;10.50;99.90
21271;DHT22;10795;50.796;3.860;2023-02-01T15:47:58;10.30;99.90
21271;DHT22;10795;50.796;3.860;2023-02-01T15:50:26;10.40;99.90
21271;DHT22;10795;50.796;3.860;2023-02-01T15:52:54;10.40;99.90
21271;DHT22;10795;50.796;3.860;2023-02-01T15:55:37;10.40;99.90
21271;DHT22;10795;50.796;3.860;2023-02-01T15:58:19;10.40;99.90
21271;DHT22;10795;50.796;3.860;2023-02-01T16:00:51;10.10;99.90
21271;DHT22;10795;50.796;3.860;2023-02-01T16:03:37;10.70;99.90
21271;DHT22;10795;50.796;3.860;2023-02-01T16:06:26;10.60;99.90
21271;DHT22;10795;50.796;3.860;2023-02-01T16:09:03;10.30;99.90
21271;DHT22;10795;50.796;3.860;2023-02-01T16:11:52;10.30;99.90
21271;DHT22;10795;50.796;3.860;2023-02-01T16:14:20;10.40;99.90
21271;DHT22;10795;50.796;3.860;2023-02-01T16:16:46;10.40;99.90
21271;DHT22;10795;50.796;3.860;2023-02-01T16:19:12;10.50;99.90
21271;DHT22;10795;50.796;3.860;2023-02-01T16:21:37;10.40;99.90
21271;DHT22;10795;50.796;3.860;2023-02-01T16:24:03;10.40;99.90
21271;DHT22;10795;50.796;3.860;2023-02-01T16:26:31;10.10;99.90
21271;DHT22;10795;50.796;3.860;2023-02-01T16:28:57;10.00;99.90
21271;DHT22;10795;50.796;3.860;2023-02-01T16:31:29;10.40;99.90
21271;DHT22;10795;50.796;3.860;2023-02-01T16:33:55;10.30;99.90
21271;DHT22;10795;50.796;3.860;2023-02-01T16:36:21;10.00;99.90
21271;DHT22;10795;50.796;3.860;2023-02-01T16:38:47;10.10;99.90
21271;DHT22;10795;50.796;3.860;2023-02-01T16:41:17;10.00;99.90
21271;DHT22;10795;50.796;3.860;2023-02-01T16:43:44;9.90;99.90
21271;DHT22;10795;50.796;3.860;2023-02-01T16:46:14;9.60;99.90
21271;DHT22;10795;50.796;3.860;2023-02-01T16:48:42;9.90;99.90
21271;DHT22;10795;50.796;3.860;2023-02-01T16:51:13;10.00;99.90
21271;DHT22;10795;50.796;3.860;2023-02-01T16:53:40;10.00;99.90
21271;DHT22;10795;50.796;3.860;2023-02-01T16:56:21;9.80;99.90
21271;DHT22;10795;50.796;3.860;2023-02-01T16:58:50;10.10;99.90
21271;DHT22;10795;50.796;3.860;2023-02-01T17:01:17;10.10;99.90
21271;DHT22;10795;50.796;3.860;2023-02-01T17:03:44;9.90;99.90
21271;DHT22;10795;50.796;3.860;2023-02-01T17:06:13;9.50;99.90
21271;DHT22;10795;50.796;3.860;2023-02-01T17:08:47;9.30;99.90
21271;DHT22;10795;50.796;3.860;2023-02-01T17:11:15;9.20;99.90
21271;DHT22;10795;50.796;3.860;2023-02-01T17:13:41;9.20;99.90
21271;DHT22;10795;50.796;3.860;2023-02-01T17:16:27;9.20;99.90
21271;DHT22;10795;50.796;3.860;2023-02-01T17:18:57;9.10;99.90
21271;DHT22;10795;50.796;3.860;2023-02-01T17:21:26;9.00;99.90
21271;DHT22;10795;50.796;3.860;2023-02-01T17:23:52;8.90;99.90
21271;DHT22;10795;50.796;3.860;2023-02-01T17:26:19;9.00;99.90
21271;DHT22;10795;50.796;3.860;2023-02-01T17:28:45;9.20;99.90
21271;DHT22;10795;50.796;3.860;2023-02-01T17:31:15;9.30;99.90
21271;DHT22;10795;50.796;3.860;2023-02-01T17:33:42;9.30;99.90
21271;DHT22;10795;50.796;3.860;2023-02-01T17:36:13;9.10;99.90
21271;DHT22;10795;50.796;3.860;2023-02-01T17:38:40;9.00;99.90
21271;DHT22;10795;50.796;3.860;2023-02-01T17:41:06;8.90;99.90
21271;DHT22;10795;50.796;3.860;2023-02-01T17:43:32;8.90;99.90
21271;DHT22;10795;50.796;3.860;2023-02-01T17:46:19;8.90;99.90
21271;DHT22;10795;50.796;3.860;2023-02-01T17:48:50;9.00;99.90
21271;DHT22;10795;50.796;3.860;2023-02-01T17:51:21;8.90;99.90
21271;DHT22;10795;50.796;3.860;2023-02-01T17:53:48;9.00;99.90
21271;DHT22;10795;50.796;3.860;2023-02-01T17:56:16;9.00;99.90
21271;DHT22;10795;50.796;3.860;2023-02-01T17:58:42;8.90;99.90
21271;DHT22;10795;50.796;3.860;2023-02-01T18:01:21;8.90;99.90
21271;DHT22;10795;50.796;3.860;2023-02-01T18:03:47;8.90;99.90
21271;DHT22;10795;50.796;3.860;2023-02-01T18:06:24;8.80;99.90
21271;DHT22;10795;50.796;3.860;2023-02-01T18:08:51;8.90;99.90
21271;DHT22;10795;50.796;3.860;2023-02-01T18:11:20;8.90;99.90
21271;DHT22;10795;50.796;3.860;2023-02-01T18:13:47;8.90;99.90
21271;DHT22;10795;50.796;3.860;2023-02-01T18:16:33;9.20;99.90
21271;DHT22;10795;50.796;3.860;2023-02-01T18:18:59;9.10;99.90
21271;DHT22;10795;50.796;3.860;2023-02-01T18:21:37;9.10;99.90
21271;DHT22;10795;50.796;3.860;2023-02-01T18:24:05;9.20;99.90